createdAt,value
2022-08-05T00:00:25.892Z,20.22
2022-08-05T00:01:20.930Z,20.22
2022-08-05T00:02:07.726Z,20.22
2022-08-05T00:02:55.637Z,20.19
2022-08-05T00:03:44.520Z,20.20
2022-08-05T00:04:34.510Z,20.20
2022-08-05T00:06:01.646Z,20.19
2022-08-05T00:06:29.371Z,20.12
2022-08-05T00:07:26.901Z,20.10
2022-08-05T00:08:00.765Z,20.12
2022-08-05T00:08:45.466Z,20.12
2022-08-05T00:09:34.460Z,20.04
2022-08-05T00:10:27.122Z,19.97
2022-08-05T00:11:20.526Z,19.94
2022-08-05T00:12:05.449Z,19.90
2022-08-05T00:12:56.841Z,19.92
2022-08-05T00:13:44.428Z,19.90
2022-08-05T00:14:35.421Z,19.87
2022-08-05T00:15:55.301Z,19.83
2022-08-05T00:16:15.397Z,19.82
2022-08-05T00:17:04.390Z,19.79
2022-08-05T00:17:55.372Z,19.79
2022-08-05T00:18:44.475Z,19.76
2022-08-05T00:19:45.516Z,19.75
2022-08-05T00:20:28.954Z,19.76
2022-08-05T00:21:14.713Z,19.76
2022-08-05T00:22:04.493Z,19.75
2022-08-05T00:22:59.657Z,19.75
2022-08-05T00:23:46.812Z,19.76
2022-08-05T00:24:35.309Z,19.79
2022-08-05T00:25:24.294Z,19.79
2022-08-05T00:26:14.289Z,19.80
2022-08-05T00:27:04.758Z,19.82
2022-08-05T00:27:55.390Z,19.85
2022-08-05T00:28:44.259Z,19.86
2022-08-05T00:29:38.214Z,19.86
2022-08-05T00:30:28.960Z,19.87
2022-08-05T00:31:15.240Z,19.86
2022-08-05T00:32:12.742Z,19.82
2022-08-05T00:32:55.219Z,19.75
2022-08-05T00:34:54.018Z,19.75
2022-08-05T00:34:56.488Z,19.72
2022-08-05T00:35:25.244Z,19.68
2022-08-05T00:36:18.529Z,19.65
2022-08-05T00:37:09.986Z,19.62
2022-08-05T00:37:55.192Z,19.62
2022-08-05T00:38:44.166Z,19.64
2022-08-05T00:39:41.332Z,19.64
2022-08-05T00:40:27.750Z,19.64
2022-08-05T00:41:14.130Z,19.60
2022-08-05T00:42:04.131Z,19.58
2022-08-05T00:42:54.117Z,19.57
2022-08-05T00:43:46.990Z,19.55
2022-08-05T00:44:35.120Z,19.50
2022-08-05T00:45:28.196Z,19.47
2022-08-05T00:46:15.088Z,19.47
2022-08-05T00:47:05.889Z,19.45
2022-08-05T00:47:57.795Z,19.45
2022-08-05T00:48:50.652Z,19.45
2022-08-05T00:49:51.148Z,19.46
2022-08-05T00:50:25.611Z,19.45
2022-08-05T00:51:50.341Z,19.45
2022-08-05T00:52:05.030Z,19.46
2022-08-05T00:52:55.313Z,19.49
2022-08-05T00:54:00.547Z,19.50
2022-08-05T00:54:35.000Z,19.49
2022-08-05T00:55:42.274Z,19.50
2022-08-05T00:56:17.366Z,19.50
2022-08-05T00:57:04.998Z,19.50
2022-08-05T00:57:58.431Z,19.49
2022-08-05T00:58:45.126Z,19.47
2022-08-05T00:59:42.058Z,19.47
2022-08-05T01:00:25.950Z,19.42
2022-08-05T01:01:13.996Z,19.39
2022-08-05T01:02:03.967Z,19.39
2022-08-05T01:02:53.921Z,19.38
2022-08-05T01:03:43.920Z,19.34
2022-08-05T01:04:34.900Z,19.31
2022-08-05T01:05:23.902Z,19.30
2022-08-05T01:06:15.262Z,19.30
2022-08-05T01:07:05.228Z,19.30
2022-08-05T01:08:30.647Z,19.30
2022-08-05T01:08:47.228Z,19.30
2022-08-05T01:09:33.851Z,19.30
2022-08-05T01:10:25.775Z,19.31
2022-08-05T01:11:13.880Z,19.30
2022-08-05T01:12:09.111Z,19.28
2022-08-05T01:13:05.308Z,19.28
2022-08-05T01:13:58.642Z,19.28
2022-08-05T01:14:34.807Z,19.27
2022-08-05T01:15:36.198Z,19.28
2022-08-05T01:16:14.789Z,19.28
2022-08-05T01:17:05.271Z,19.27
2022-08-05T01:17:54.251Z,19.27
2022-08-05T01:18:48.128Z,19.25
2022-08-05T01:19:57.042Z,19.20
2022-08-05T01:20:24.751Z,19.16
2022-08-05T01:21:13.751Z,19.12
2022-08-05T01:22:04.730Z,19.07
2022-08-05T01:22:53.730Z,19.02
2022-08-05T01:23:43.718Z,19.01
2022-08-05T01:24:34.728Z,18.97
2022-08-05T01:25:23.698Z,18.96
2022-08-05T01:26:14.680Z,18.93
2022-08-05T01:27:17.492Z,18.90
2022-08-05T01:27:55.570Z,18.89
2022-08-05T01:28:43.668Z,18.87
2022-08-05T01:29:34.928Z,18.84
2022-08-05T01:30:34.257Z,18.82
2022-08-05T01:31:14.630Z,18.78
2022-08-05T01:32:03.648Z,18.75
2022-08-05T01:32:53.620Z,18.74
2022-08-05T01:33:48.891Z,18.72
2022-08-05T01:34:35.885Z,18.68
2022-08-05T01:35:52.213Z,18.68
2022-08-05T01:36:16.030Z,18.68
2022-08-05T01:37:03.579Z,18.68
2022-08-05T01:37:54.607Z,18.71
2022-08-05T01:38:43.560Z,18.72
2022-08-05T01:39:46.685Z,18.74
2022-08-05T01:40:29.033Z,18.72
2022-08-05T01:41:13.529Z,18.72
2022-08-05T01:42:03.534Z,18.69
2022-08-05T01:42:53.510Z,18.72
2022-08-05T01:43:43.520Z,18.74
2022-08-05T01:44:35.524Z,18.74
2022-08-05T01:45:23.509Z,18.72
2022-08-05T01:46:41.491Z,18.72
2022-08-05T01:47:05.190Z,18.71
2022-08-05T01:47:54.453Z,18.72
2022-08-05T01:48:43.459Z,18.72
2022-08-05T01:50:01.535Z,18.72
2022-08-05T01:50:28.611Z,18.72
2022-08-05T01:51:14.447Z,18.71
2022-08-05T01:52:17.707Z,18.71
2022-08-05T01:52:54.436Z,18.71
2022-08-05T01:53:57.199Z,18.74
2022-08-05T01:54:34.390Z,18.72
2022-08-05T01:55:24.389Z,18.72
2022-08-05T01:56:13.379Z,18.72
2022-08-05T01:58:10.214Z,18.72
2022-08-05T01:58:13.191Z,18.69
2022-08-05T01:58:45.431Z,18.68
2022-08-05T01:59:33.340Z,18.69
2022-08-05T02:00:29.998Z,18.69
2022-08-05T02:01:14.523Z,18.66
2022-08-05T02:02:03.419Z,18.64
2022-08-05T02:02:55.028Z,18.62
2022-08-05T02:03:43.309Z,18.62
2022-08-05T02:04:33.309Z,18.62
2022-08-05T02:05:23.401Z,18.60
2022-08-05T02:06:37.478Z,18.57
2022-08-05T02:07:04.268Z,18.59
2022-08-05T02:08:00.067Z,18.54
2022-08-05T02:08:54.897Z,18.54
2022-08-05T02:09:34.250Z,18.53
2022-08-05T02:10:28.362Z,18.53
2022-08-05T02:11:14.238Z,18.53
2022-08-05T02:12:04.218Z,18.50
2022-08-05T02:12:53.199Z,18.42
2022-08-05T02:13:53.328Z,18.34
2022-08-05T02:14:34.199Z,18.28
2022-08-05T02:15:23.200Z,18.25
2022-08-05T02:16:16.555Z,18.25
2022-08-05T02:17:03.171Z,18.28
2022-08-05T02:18:27.510Z,18.29
2022-08-05T02:18:44.146Z,18.32
2022-08-05T02:19:34.334Z,18.35
2022-08-05T02:20:23.128Z,18.36
2022-08-05T02:21:15.378Z,18.38
2022-08-05T02:22:03.108Z,18.41
2022-08-05T02:22:53.097Z,18.44
2022-08-05T02:23:43.089Z,18.44
2022-08-05T02:24:33.098Z,18.44
2022-08-05T02:25:23.075Z,18.46
2022-08-05T02:26:13.068Z,18.39
2022-08-05T02:27:09.943Z,18.35
2022-08-05T02:27:59.252Z,18.32
2022-08-05T02:28:46.022Z,18.28
2022-08-05T02:29:59.152Z,18.26
2022-08-05T02:30:24.037Z,18.26
2022-08-05T02:31:14.421Z,18.26
2022-08-05T02:32:04.639Z,18.28
2022-08-05T02:32:52.989Z,18.26
2022-08-05T02:33:42.990Z,18.28
2022-08-05T02:34:32.969Z,18.32
2022-08-05T02:35:27.958Z,18.31
2022-08-05T02:36:15.360Z,18.34
2022-08-05T02:37:02.958Z,18.32
2022-08-05T02:37:54.173Z,18.34
2022-08-05T02:38:42.947Z,18.32
2022-08-05T02:39:33.023Z,18.31
2022-08-05T02:40:22.919Z,18.31
2022-08-05T02:41:17.163Z,18.31
2022-08-05T02:42:03.914Z,18.31
2022-08-05T02:42:54.030Z,18.31
2022-08-05T02:44:02.680Z,18.26
2022-08-05T02:44:33.866Z,18.20
2022-08-05T02:45:23.961Z,18.14
2022-08-05T02:46:16.311Z,18.11
2022-08-05T02:47:02.860Z,18.10
2022-08-05T02:48:12.110Z,18.13
2022-08-05T02:48:43.827Z,18.13
2022-08-05T02:49:36.852Z,18.14
2022-08-05T02:50:22.807Z,18.13
2022-08-05T02:51:12.798Z,18.14
2022-08-05T02:52:04.623Z,18.14
2022-08-05T02:52:52.788Z,18.16
2022-08-05T02:53:42.768Z,18.16
2022-08-05T02:54:36.433Z,18.16
2022-08-05T02:55:55.079Z,18.16
2022-08-05T02:56:15.972Z,18.17
2022-08-05T02:57:03.765Z,18.17
2022-08-05T02:58:11.929Z,18.19
2022-08-05T02:58:43.913Z,18.19
2022-08-05T02:59:34.582Z,18.19
2022-08-05T03:00:24.802Z,18.19
2022-08-05T03:01:12.756Z,18.20
2022-08-05T03:02:02.812Z,18.21
2022-08-05T03:02:52.668Z,18.19
2022-08-05T03:04:03.061Z,18.19
2022-08-05T03:04:33.689Z,18.16
2022-08-05T03:06:55.959Z,18.09
2022-08-05T03:06:57.087Z,18.11
2022-08-05T03:07:03.637Z,18.04
2022-08-05T03:08:06.766Z,18.02
2022-08-05T03:08:43.607Z,18.02
2022-08-05T03:09:37.519Z,18.02
2022-08-05T03:10:24.847Z,17.99
2022-08-05T03:11:55.693Z,17.99
2022-08-05T03:12:03.587Z,17.99
2022-08-05T03:12:52.576Z,17.98
2022-08-05T03:13:52.222Z,18.01
2022-08-05T03:14:33.538Z,18.02
2022-08-05T03:15:23.747Z,18.01
2022-08-05T03:16:12.527Z,18.01
2022-08-05T03:17:06.100Z,18.04
2022-08-05T03:17:54.009Z,18.02
2022-08-05T03:18:42.506Z,18.05
2022-08-05T03:19:34.108Z,18.02
2022-08-05T03:20:22.487Z,18.05
2022-08-05T03:21:12.488Z,18.07
2022-08-05T03:22:02.469Z,18.07
2022-08-05T03:22:52.460Z,18.05
2022-08-05T03:23:42.456Z,18.04
2022-08-05T03:24:32.437Z,18.02
2022-08-05T03:25:33.587Z,17.99
2022-08-05T03:26:32.152Z,17.98
2022-08-05T03:27:03.417Z,17.96
2022-08-05T03:27:59.320Z,17.96
2022-08-05T03:28:43.397Z,17.94
2022-08-05T03:29:45.256Z,17.92
2022-08-05T03:30:28.705Z,17.91
2022-08-05T03:31:41.499Z,17.84
2022-08-05T03:32:03.378Z,17.80
2022-08-05T03:32:52.351Z,17.76
2022-08-05T03:33:52.951Z,17.70
2022-08-05T03:34:33.337Z,17.65
2022-08-05T03:35:22.328Z,17.60
2022-08-05T03:36:12.383Z,17.58
2022-08-05T03:37:02.317Z,17.63
2022-08-05T03:37:53.534Z,17.65
2022-08-05T03:38:42.297Z,17.63
2022-08-05T03:39:38.214Z,17.63
2022-08-05T03:40:31.152Z,17.62
2022-08-05T03:41:13.287Z,17.62
2022-08-05T03:42:02.270Z,17.62
2022-08-05T03:42:52.927Z,17.60
2022-08-05T03:44:08.853Z,17.62
2022-08-05T03:44:33.227Z,17.65
2022-08-05T03:45:23.552Z,17.66
2022-08-05T03:46:12.207Z,17.71
2022-08-05T03:47:02.236Z,17.73
2022-08-05T03:47:57.247Z,17.77
2022-08-05T03:48:45.426Z,17.79
2022-08-05T03:49:51.813Z,17.81
2022-08-05T03:50:23.166Z,17.84
2022-08-05T03:52:38.089Z,17.87
2022-08-05T03:52:48.553Z,17.86
2022-08-05T03:55:49.905Z,17.89
2022-08-05T03:55:50.984Z,17.87
2022-08-05T03:55:51.763Z,17.89
2022-08-05T03:56:04.637Z,17.84
2022-08-05T03:56:27.831Z,17.84
2022-08-05T03:57:03.103Z,17.86
2022-08-05T03:57:53.096Z,17.86
2022-08-05T03:58:42.077Z,17.84
2022-08-05T03:59:46.533Z,17.86
2022-08-05T04:00:23.076Z,17.86
2022-08-05T04:01:13.052Z,17.89
2022-08-05T04:02:02.080Z,17.89
2022-08-05T04:02:58.587Z,17.89
2022-08-05T04:04:09.501Z,17.91
2022-08-05T04:04:33.016Z,17.91
2022-08-05T04:05:23.118Z,17.92
2022-08-05T04:06:11.996Z,17.92
2022-08-05T04:07:01.994Z,17.94
2022-08-05T04:07:58.660Z,17.95
2022-08-05T04:08:42.977Z,17.96
2022-08-05T04:09:36.556Z,17.95
2022-08-05T04:10:21.974Z,17.96
2022-08-05T04:11:11.947Z,17.98
2022-08-05T04:12:01.950Z,17.98
2022-08-05T04:12:51.947Z,18.01
2022-08-05T04:13:50.919Z,17.99
2022-08-05T04:14:32.925Z,18.02
2022-08-05T04:15:24.576Z,18.01
2022-08-05T04:16:11.906Z,18.02
2022-08-05T04:17:02.136Z,18.02
2022-08-05T04:17:56.556Z,18.01
2022-08-05T04:18:42.885Z,17.99
2022-08-05T04:19:31.864Z,17.96
2022-08-05T04:20:23.227Z,17.94
2022-08-05T04:21:11.845Z,17.92
2022-08-05T04:22:05.736Z,17.87
2022-08-05T04:22:52.827Z,17.87
2022-08-05T04:24:05.851Z,17.87
2022-08-05T04:24:32.812Z,17.87
2022-08-05T04:25:38.350Z,17.89
2022-08-05T04:26:12.793Z,17.89
2022-08-05T04:27:01.775Z,17.89
2022-08-05T04:27:57.363Z,17.87
2022-08-05T04:28:50.736Z,17.87
2022-08-05T04:29:32.799Z,17.87
2022-08-05T04:30:21.763Z,17.91
2022-08-05T04:31:11.744Z,17.94
2022-08-05T04:32:01.744Z,17.95
2022-08-05T04:32:51.734Z,17.96
2022-08-05T04:33:54.525Z,18.04
2022-08-05T04:34:35.176Z,18.07
2022-08-05T04:35:21.696Z,18.11
2022-08-05T04:36:45.930Z,18.16
2022-08-05T04:37:03.146Z,18.19
2022-08-05T04:38:02.842Z,18.21
2022-08-05T04:38:42.685Z,18.23
2022-08-05T04:39:32.694Z,18.25
2022-08-05T04:40:21.644Z,18.21
2022-08-05T04:41:11.636Z,18.23
2022-08-05T04:42:01.780Z,18.20
2022-08-05T04:42:51.625Z,18.17
2022-08-05T04:43:48.250Z,18.20
2022-08-05T04:44:32.622Z,18.20
2022-08-05T04:45:23.053Z,18.21
2022-08-05T04:46:12.586Z,18.21
2022-08-05T04:47:09.599Z,18.23
2022-08-05T04:47:52.574Z,18.23
2022-08-05T04:48:41.595Z,18.21
2022-08-05T04:49:38.977Z,18.23
2022-08-05T04:50:34.653Z,18.23
2022-08-05T04:51:12.536Z,18.25
2022-08-05T04:52:01.524Z,18.29
2022-08-05T04:52:51.524Z,18.32
2022-08-05T04:53:41.535Z,18.36
2022-08-05T04:54:31.504Z,18.39
2022-08-05T04:56:14.874Z,18.42
2022-08-05T04:56:33.627Z,18.46
2022-08-05T04:57:02.477Z,18.51
2022-08-05T04:57:54.085Z,18.56
2022-08-05T04:58:41.471Z,18.57
2022-08-05T04:59:39.261Z,18.60
2022-08-05T05:00:23.455Z,18.62
2022-08-05T05:01:11.457Z,18.64
2022-08-05T05:02:07.982Z,18.62
2022-08-05T05:02:52.519Z,18.60
2022-08-05T05:03:42.280Z,18.60
2022-08-05T05:04:31.405Z,18.65
2022-08-05T05:05:28.476Z,18.66
2022-08-05T05:06:39.694Z,18.71
2022-08-05T05:07:02.435Z,18.72
2022-08-05T05:07:52.932Z,18.71
2022-08-05T05:08:42.759Z,18.72
2022-08-05T05:09:31.355Z,18.71
2022-08-05T05:10:21.336Z,18.74
2022-08-05T05:11:11.335Z,18.74
2022-08-05T05:12:03.135Z,18.76
2022-08-05T05:12:51.333Z,18.75
2022-08-05T05:13:43.384Z,18.74
2022-08-05T05:14:32.279Z,18.72
2022-08-05T05:15:54.335Z,18.69
2022-08-05T05:16:12.282Z,18.66
2022-08-05T05:17:01.275Z,18.66
2022-08-05T05:17:56.840Z,18.62
2022-08-05T05:18:52.417Z,18.57
2022-08-05T05:19:36.568Z,18.57
2022-08-05T05:20:22.234Z,18.60
2022-08-05T05:21:12.234Z,18.62
2022-08-05T05:22:06.260Z,18.65
2022-08-05T05:22:52.245Z,18.65
2022-08-05T05:24:03.696Z,18.68
2022-08-05T05:24:57.526Z,18.71
2022-08-05T05:25:22.199Z,18.74
2022-08-05T05:26:12.183Z,18.76
2022-08-05T05:27:01.164Z,18.78
2022-08-05T05:27:54.014Z,18.76
2022-08-05T05:28:42.785Z,18.78
2022-08-05T05:29:41.079Z,18.82
2022-08-05T05:30:30.802Z,18.84
2022-08-05T05:31:12.133Z,18.87
2022-08-05T05:32:01.122Z,18.87
2022-08-05T05:32:51.116Z,18.91
2022-08-05T05:33:58.665Z,18.91
2022-08-05T05:34:32.095Z,18.93
2022-08-05T05:35:21.195Z,18.94
2022-08-05T05:36:11.091Z,18.96
2022-08-05T05:37:01.075Z,18.96
2022-08-05T05:38:00.322Z,18.97
2022-08-05T05:38:42.045Z,18.93
2022-08-05T05:39:32.888Z,18.93
2022-08-05T05:40:21.032Z,18.91
2022-08-05T05:41:12.283Z,18.93
2022-08-05T05:42:01.014Z,18.94
2022-08-05T05:42:51.013Z,18.96
2022-08-05T05:43:58.461Z,18.97
2022-08-05T05:44:36.631Z,19.02
2022-08-05T05:45:21.984Z,19.06
2022-08-05T05:46:17.598Z,19.07
2022-08-05T05:47:03.960Z,19.12
2022-08-05T05:48:06.575Z,19.15
2022-08-05T05:48:41.961Z,19.21
2022-08-05T05:49:30.945Z,19.23
2022-08-05T05:50:20.924Z,19.27
2022-08-05T05:51:15.610Z,19.30
2022-08-05T05:52:05.846Z,19.31
2022-08-05T05:52:51.904Z,19.32
2022-08-05T05:53:54.092Z,19.35
2022-08-05T05:54:49.863Z,19.34
2022-08-05T05:55:21.904Z,19.34
2022-08-05T05:56:11.148Z,19.35
2022-08-05T05:57:00.866Z,19.38
2022-08-05T05:57:52.262Z,19.38
2022-08-05T05:58:40.851Z,19.38
2022-08-05T05:59:30.862Z,19.38
2022-08-05T06:00:21.844Z,19.40
2022-08-05T06:01:15.330Z,19.42
2022-08-05T06:02:01.304Z,19.45
2022-08-05T06:02:50.815Z,19.45
2022-08-05T06:04:01.181Z,19.42
2022-08-05T06:04:31.842Z,19.39
2022-08-05T06:05:20.881Z,19.40
2022-08-05T06:06:10.784Z,19.43
2022-08-05T06:07:01.481Z,19.47
2022-08-05T06:08:01.473Z,19.50
2022-08-05T06:08:41.765Z,19.55
2022-08-05T06:10:01.503Z,19.60
2022-08-05T06:10:21.731Z,19.61
2022-08-05T06:11:10.725Z,19.64
2022-08-05T06:12:01.622Z,19.67
2022-08-05T06:12:50.712Z,19.71
2022-08-05T06:13:53.736Z,19.75
2022-08-05T06:14:31.709Z,19.79
2022-08-05T06:15:24.071Z,19.83
2022-08-05T06:16:28.597Z,19.86
2022-08-05T06:17:01.825Z,19.90
2022-08-05T06:17:53.048Z,19.98
2022-08-05T06:18:40.645Z,20.04
2022-08-05T06:19:35.246Z,20.12
2022-08-05T06:20:21.904Z,20.30
2022-08-05T06:21:16.624Z,20.44
2022-08-05T06:22:01.794Z,20.72
2022-08-05T06:22:50.606Z,21.06
2022-08-05T06:23:44.214Z,21.45
2022-08-05T06:24:30.590Z,21.79
2022-08-05T06:25:59.121Z,22.30
2022-08-05T06:26:21.272Z,22.66
2022-08-05T06:27:01.573Z,22.99
2022-08-05T06:28:08.974Z,23.22
2022-08-05T06:28:41.534Z,23.38
2022-08-05T06:29:49.446Z,23.59
2022-08-05T06:30:21.557Z,23.72
2022-08-05T06:31:11.228Z,23.82
2022-08-05T06:32:01.504Z,23.93
2022-08-05T06:32:50.778Z,23.99
2022-08-05T06:34:06.985Z,24.02
2022-08-05T06:34:31.473Z,24.02
2022-08-05T06:36:04.190Z,24.09
2022-08-05T06:36:11.455Z,24.16
2022-08-05T06:37:00.461Z,24.23
2022-08-05T06:37:57.464Z,24.26
2022-08-05T06:38:43.058Z,24.27
2022-08-05T06:39:31.446Z,24.29
2022-08-05T06:40:21.007Z,24.31
2022-08-05T06:41:11.704Z,24.36
2022-08-05T06:42:00.401Z,24.39
2022-08-05T06:42:51.983Z,24.39
2022-08-05T06:43:58.933Z,24.37
2022-08-05T06:44:31.374Z,24.39
2022-08-05T06:45:21.046Z,24.41
2022-08-05T06:46:10.347Z,24.39
2022-08-05T06:47:02.320Z,24.37
2022-08-05T06:48:44.223Z,24.36
2022-08-05T06:48:55.682Z,24.36
2022-08-05T06:50:00.238Z,24.37
2022-08-05T06:50:21.294Z,24.37
2022-08-05T06:51:12.036Z,24.37
2022-08-05T06:52:01.255Z,24.37
2022-08-05T06:53:03.717Z,24.39
2022-08-05T06:53:41.245Z,24.42
2022-08-05T06:54:31.234Z,24.42
2022-08-05T06:55:20.235Z,24.44
2022-08-05T06:56:26.035Z,24.44
2022-08-05T06:57:56.948Z,24.41
2022-08-05T06:58:03.232Z,24.39
2022-08-05T06:58:41.698Z,24.42
2022-08-05T06:59:38.513Z,24.41
2022-08-05T07:00:24.565Z,24.44
2022-08-05T07:01:10.201Z,24.45
2022-08-05T07:02:00.155Z,24.46
2022-08-05T07:02:53.610Z,24.52
2022-08-05T07:03:40.116Z,24.56
2022-08-05T07:04:30.106Z,24.60
2022-08-05T07:05:22.334Z,24.61
2022-08-05T07:06:15.228Z,24.66
2022-08-05T07:07:00.082Z,24.70
2022-08-05T07:07:50.096Z,24.74
2022-08-05T07:08:40.062Z,24.71
2022-08-05T07:09:32.397Z,24.77
2022-08-05T07:10:21.045Z,24.83
2022-08-05T07:11:15.562Z,24.86
2022-08-05T07:12:00.675Z,24.93
2022-08-05T07:12:50.023Z,24.98
2022-08-05T07:13:56.719Z,25.01
2022-08-05T07:14:32.210Z,24.99
2022-08-05T07:15:34.477Z,25.01
2022-08-05T07:16:12.018Z,25.05
2022-08-05T07:18:01.163Z,25.09
2022-08-05T07:18:02.422Z,25.08
2022-08-05T07:18:40.937Z,25.11
2022-08-05T07:20:16.876Z,25.19
2022-08-05T07:20:38.793Z,25.22
2022-08-05T07:21:10.914Z,25.23
2022-08-05T07:22:02.408Z,25.26
2022-08-05T07:22:49.887Z,25.27
2022-08-05T07:23:40.602Z,25.35
2022-08-05T07:24:30.901Z,25.38
2022-08-05T07:25:23.487Z,25.41
2022-08-05T07:26:10.855Z,25.39
2022-08-05T07:26:59.836Z,25.39
2022-08-05T07:27:57.197Z,25.38
2022-08-05T07:28:40.824Z,25.38
2022-08-05T07:30:27.164Z,25.39
2022-08-05T07:30:28.014Z,25.41
2022-08-05T07:31:10.796Z,25.38
2022-08-05T07:31:59.786Z,25.42
2022-08-05T07:32:50.941Z,25.44
2022-08-05T07:33:39.756Z,25.44
2022-08-05T07:34:29.774Z,25.45
2022-08-05T07:36:03.566Z,25.46
2022-08-05T07:36:20.916Z,25.49
2022-08-05T07:37:00.736Z,25.54
2022-08-05T07:37:49.717Z,25.60
2022-08-05T07:38:43.575Z,25.61
2022-08-05T07:40:04.454Z,25.64
2022-08-05T07:40:31.478Z,25.71
2022-08-05T07:42:08.031Z,25.76
2022-08-05T07:42:12.993Z,25.79
2022-08-05T07:42:50.679Z,25.81
2022-08-05T07:43:39.668Z,25.83
2022-08-05T07:44:29.638Z,25.89
2022-08-05T07:45:19.637Z,25.91
2022-08-05T07:46:18.189Z,25.93
2022-08-05T07:47:00.636Z,25.97
2022-08-05T07:47:50.606Z,26.00
2022-08-05T07:49:01.973Z,26.06
2022-08-05T07:49:30.588Z,26.11
2022-08-05T07:50:22.610Z,26.09
2022-08-05T07:51:23.651Z,26.16
2022-08-05T07:52:00.566Z,26.23
2022-08-05T07:52:49.567Z,26.29
2022-08-05T07:53:50.236Z,26.31
2022-08-05T07:54:33.618Z,26.35
2022-08-05T07:55:53.597Z,26.39
2022-08-05T07:57:02.577Z,26.44
2022-08-05T07:57:22.718Z,26.46
2022-08-05T07:58:02.488Z,26.46
2022-08-05T07:58:57.190Z,26.42
2022-08-05T07:59:39.058Z,26.36
2022-08-05T08:00:20.517Z,26.35
2022-08-05T08:01:12.080Z,26.31
2022-08-05T08:01:59.515Z,26.31
2022-08-05T08:03:15.061Z,26.31
2022-08-05T08:03:44.494Z,26.31
2022-08-05T08:04:37.467Z,26.32
2022-08-05T08:05:20.419Z,26.29
2022-08-05T08:06:09.409Z,26.19
2022-08-05T08:06:59.589Z,26.12
2022-08-05T08:07:59.617Z,26.08
2022-08-05T08:08:40.379Z,26.06
2022-08-05T08:09:29.367Z,26.04
2022-08-05T08:10:20.613Z,26.01
2022-08-05T08:11:09.350Z,25.96
2022-08-05T08:12:09.038Z,25.90
2022-08-05T08:12:50.370Z,25.90
2022-08-05T08:13:43.013Z,25.90
2022-08-05T08:14:30.309Z,25.91
2022-08-05T08:16:33.404Z,25.93
2022-08-05T08:16:42.986Z,25.91
2022-08-05T08:17:00.289Z,25.90
2022-08-05T08:17:52.886Z,25.89
2022-08-05T08:18:39.280Z,25.86
2022-08-05T08:20:10.308Z,25.86
2022-08-05T08:20:43.477Z,25.89
2022-08-05T08:21:15.965Z,25.90
2022-08-05T08:22:00.250Z,25.93
2022-08-05T08:22:49.220Z,25.94
2022-08-05T08:24:03.054Z,25.94
2022-08-05T08:24:45.958Z,25.97
2022-08-05T08:25:26.406Z,25.97
2022-08-05T08:26:10.180Z,25.98
2022-08-05T08:26:59.181Z,26.03
2022-08-05T08:27:51.389Z,26.01
2022-08-05T08:28:59.144Z,26.08
2022-08-05T08:30:03.817Z,26.08
2022-08-05T08:30:32.770Z,26.11
2022-08-05T08:31:15.126Z,26.13
2022-08-05T08:32:00.120Z,26.19
2022-08-05T08:32:49.118Z,26.23
2022-08-05T08:33:39.107Z,26.29
2022-08-05T08:34:30.719Z,26.34
2022-08-05T08:35:19.276Z,26.38
2022-08-05T08:37:04.988Z,26.47
2022-08-05T08:37:53.516Z,26.47
2022-08-05T08:38:40.051Z,26.49
2022-08-05T08:39:29.106Z,26.51
2022-08-05T08:40:19.137Z,26.54
2022-08-05T08:41:09.043Z,26.57
2022-08-05T08:41:59.926Z,26.59
2022-08-05T08:42:52.413Z,26.60
2022-08-05T08:45:19.143Z,26.69
2022-08-05T08:45:19.857Z,26.65
2022-08-05T08:45:26.775Z,26.72
2022-08-05T08:46:15.462Z,26.72
2022-08-05T08:46:59.974Z,26.73
2022-08-05T08:48:07.138Z,26.76
2022-08-05T08:48:59.365Z,26.83
2022-08-05T08:50:22.405Z,26.86
2022-08-05T08:50:31.696Z,26.90
2022-08-05T08:52:02.218Z,26.94
2022-08-05T08:52:06.405Z,26.97
2022-08-05T08:52:51.786Z,26.98
2022-08-05T08:53:40.247Z,26.98
2022-08-05T08:54:29.882Z,27.01
2022-08-05T08:55:19.623Z,27.03
2022-08-05T08:56:09.861Z,27.12
2022-08-05T08:56:58.852Z,27.20
2022-08-05T08:57:58.226Z,27.24
2022-08-05T08:58:44.277Z,27.28
2022-08-05T08:59:33.424Z,27.24
2022-08-05T09:00:19.444Z,27.24
2022-08-05T09:01:15.894Z,27.24
2022-08-05T09:02:01.123Z,27.27
2022-08-05T09:02:48.783Z,27.30
2022-08-05T09:03:40.696Z,27.31
2022-08-05T09:04:30.640Z,27.34
2022-08-05T09:05:18.763Z,27.33
2022-08-05T09:06:12.134Z,27.33
2022-08-05T09:06:59.752Z,27.34
2022-08-05T09:07:57.348Z,27.42
2022-08-05T09:08:40.185Z,27.45
2022-08-05T09:09:34.877Z,27.45
2022-08-05T09:10:19.819Z,27.49
2022-08-05T09:11:08.733Z,27.52
2022-08-05T09:12:03.359Z,27.59
2022-08-05T09:12:51.033Z,27.61
2022-08-05T09:13:41.433Z,27.63
2022-08-05T09:14:56.457Z,27.66
2022-08-05T09:15:19.654Z,27.69
2022-08-05T09:16:08.663Z,27.76
2022-08-05T09:16:59.635Z,27.77
2022-08-05T09:17:49.798Z,27.76
2022-08-05T09:18:42.796Z,27.74
2022-08-05T09:19:36.364Z,27.78
2022-08-05T09:20:20.926Z,27.80
2022-08-05T09:21:11.434Z,27.86
2022-08-05T09:22:17.690Z,27.90
2022-08-05T09:22:51.829Z,27.95
2022-08-05T09:23:43.690Z,28.01
2022-08-05T09:24:29.544Z,28.05
2022-08-05T09:25:24.303Z,28.06
2022-08-05T09:26:09.535Z,28.02
2022-08-05T09:26:58.720Z,28.03
2022-08-05T09:28:04.564Z,28.05
2022-08-05T09:28:39.526Z,28.06
2022-08-05T09:29:30.942Z,28.08
2022-08-05T09:30:18.503Z,28.13
2022-08-05T09:31:22.614Z,28.15
2022-08-05T09:32:45.847Z,28.18
2022-08-05T09:32:49.989Z,28.21
2022-08-05T09:33:38.484Z,28.30
2022-08-05T09:34:28.436Z,28.35
2022-08-05T09:35:26.817Z,28.39
2022-08-05T09:36:11.777Z,28.42
2022-08-05T09:36:59.968Z,28.43
2022-08-05T09:38:16.513Z,28.45
2022-08-05T09:38:39.416Z,28.48
2022-08-05T09:39:41.961Z,28.48
2022-08-05T09:40:19.416Z,28.50
2022-08-05T09:41:08.367Z,28.51
2022-08-05T09:41:58.587Z,28.48
2022-08-05T09:42:48.476Z,28.45
2022-08-05T09:43:40.461Z,28.50
2022-08-05T09:44:28.336Z,28.43
2022-08-05T09:46:06.299Z,28.35
2022-08-05T09:46:09.317Z,28.25
2022-08-05T09:46:58.314Z,28.23
2022-08-05T09:47:56.211Z,28.21
2022-08-05T09:48:39.306Z,28.21
2022-08-05T09:49:54.354Z,28.18
2022-08-05T09:50:38.871Z,28.20
2022-08-05T09:51:15.031Z,28.27
2022-08-05T09:51:59.257Z,28.36
2022-08-05T09:52:48.247Z,28.40
2022-08-05T09:53:54.348Z,28.48
2022-08-05T09:54:29.558Z,28.54
2022-08-05T09:55:56.479Z,28.58
2022-08-05T09:56:12.903Z,28.61
2022-08-05T09:57:01.659Z,28.62
2022-08-05T09:57:48.199Z,28.64
2022-08-05T09:58:38.189Z,28.72
2022-08-05T09:59:28.180Z,28.80
2022-08-05T10:00:18.168Z,28.89
2022-08-05T10:01:13.482Z,28.97
2022-08-05T10:01:59.159Z,29.08
2022-08-05T10:02:48.208Z,29.15
2022-08-05T10:03:38.774Z,29.21
2022-08-05T10:04:29.452Z,29.20
2022-08-05T10:05:19.119Z,29.17
2022-08-05T10:06:14.834Z,29.15
2022-08-05T10:06:59.932Z,29.15
2022-08-05T10:08:10.915Z,29.17
2022-08-05T10:08:39.079Z,29.20
2022-08-05T10:09:29.647Z,29.21
2022-08-05T10:10:18.098Z,29.20
2022-08-05T10:11:09.069Z,29.25
2022-08-05T10:11:58.056Z,29.23
2022-08-05T10:12:49.437Z,29.18
2022-08-05T10:13:45.644Z,29.23
2022-08-05T10:14:30.313Z,29.32
2022-08-05T10:15:20.027Z,29.36
2022-08-05T10:16:08.029Z,29.35
2022-08-05T10:16:57.997Z,29.30
2022-08-05T10:17:56.626Z,29.21
2022-08-05T10:18:38.970Z,29.14
2022-08-05T10:19:31.895Z,29.14
2022-08-05T10:20:20.005Z,29.20
2022-08-05T10:21:11.953Z,29.21
2022-08-05T10:21:58.978Z,29.27
2022-08-05T10:22:50.799Z,29.36
2022-08-05T10:24:00.113Z,29.44
2022-08-05T10:24:28.919Z,29.49
2022-08-05T10:25:17.900Z,29.52
2022-08-05T10:26:07.900Z,29.57
2022-08-05T10:27:00.538Z,29.63
2022-08-05T10:28:09.364Z,29.67
2022-08-05T10:28:38.956Z,29.71
2022-08-05T10:30:06.706Z,29.70
2022-08-05T10:31:20.200Z,29.71
2022-08-05T10:32:47.176Z,29.71
2022-08-05T10:32:55.633Z,29.62
2022-08-05T10:32:59.673Z,29.52
2022-08-05T10:33:38.811Z,29.52
2022-08-05T10:34:31.045Z,29.54
2022-08-05T10:35:17.811Z,29.55
2022-08-05T10:36:07.791Z,29.55
2022-08-05T10:36:57.783Z,29.52
2022-08-05T10:37:47.761Z,29.48
2022-08-05T10:38:37.761Z,29.52
2022-08-05T10:40:04.263Z,29.58
2022-08-05T10:40:18.835Z,29.57
2022-08-05T10:41:07.756Z,29.52
2022-08-05T10:42:00.856Z,29.55
2022-08-05T10:42:47.711Z,29.55
2022-08-05T10:43:37.704Z,29.60
2022-08-05T10:44:27.692Z,29.66